Accueil
METAR-TAF:

METAR-TAF

Aéroports :

Kangirsuk, Québec, Canada

latitude: 60-01N, longitude: 070-00W, altitude: 117 m

Observation

Le bulletin a été fait il y a 9 heures et 58 minutes, à 22:00 UTC
Vent 7 kt de ouest
Température -22°C
Humidité 76%
Pression 990 hPa
Visibilité: 4.8 km
Ciel couvert à une hauteur de 4600 ft
neige faible

METAR: CYAS 162200Z 28007KT 3SM -SN OVC046 M22/M25 A2923 RMK SC8 SN COV/ONE LOOSE LAST STFD OBS/NEXT 171300UTC SLP917

Heure: 02:58 (07:58 UTC)

Prévision

Le bulletin a été fait il y a 11 heures et 50 minutes, à 20:08 UTC
Prévision valable du 16 à 20 UTC au 16 à 22 UTC
Vent 15 kt de ouest
Visibilité: 10 km
Ciel couvert à une hauteur de 4000 ft
neige faible
Temporairement
du 16 à 20 UTC au 16 à 22 UTC
Visibilité: 3.2 km
neige faible

TAF: CYAS 162008Z 1620/1622 27015KT P6SM -SN OVC040 TEMPO 1620/1622 2SM -SN RMK NXT FCST WILL BE ISSUED AT 171445Z

Observations et prévisions météorologiques de plus de 4000 aéroports (messages METAR et TAF).

Les stations disponibles sont représentées par des disques jaunes et rouges sur la carte.

Passer la souris dessus pour voir le nom de la station.

Cliquer dessus pour voir les observations et prévisions météorologiques.

Pour changer de carte: cliquez sur les boutons verts avec une croix noire pour zoomer, sur le bouton vert avec un tiret pour effectuer un zoom arrière, ou sur les flèches vertes pour les cartes adjacentes.


METAR-TAF: